Time;durP1;ratioP1;P1;durP2;ratioP2;P2;SDS_P1;SDS_P2;PMS_P1;PMS_P2;Temp;Humidity;BMP_temperature;BMP_pressure;BME280_temperature;BME280_humidity;BME280_pressure;Samples;Min_cycle;Max_cycle;Signal;HPM_P1;HPM_P2
2022/03/26 00:00:21;;;;;;;41.03;24.17;;;;;;;8.86;56.36;102210.53;686714;28;902;-77
2022/03/26 00:00:43;;;;;;;42.30;24.30;;;;;;;8.88;56.73;102226.25;684723;28;1226;-77
2022/03/26 00:01:06;;;;;;;40.90;23.95;;;;;;;8.88;56.06;102223.63;685660;28;1336;-76
2022/03/26 00:01:27;;;;;;;39.53;24.13;;;;;;;8.90;56.25;102216.72;680979;28;4340;-76
2022/03/26 00:01:49;;;;;;;40.73;23.43;;;;;;;8.97;55.88;102219.56;678771;28;1931;-75
2022/03/26 00:02:10;;;;;;;41.58;23.52;;;;;;;8.88;57.14;102224.50;677802;29;1221;-77
2022/03/26 00:02:30;;;;;;;41.90;24.93;;;;;;;8.85;56.53;102214.88;677388;29;1053;-77
2022/03/26 00:02:51;;;;;;;39.80;24.02;;;;;;;8.90;56.01;102227.16;682128;28;1330;-77
2022/03/26 00:03:12;;;;;;;34.57;21.87;;;;;;;8.92;55.82;102223.75;682663;28;1569;-76
2022/03/26 00:03:33;;;;;;;32.95;20.90;;;;;;;8.98;55.98;102228.25;682465;28;1192;-76
2022/03/26 00:03:54;;;;;;;32.67;20.88;;;;;;;9.03;55.25;102218.81;679472;28;1316;-76
2022/03/26 00:04:14;;;;;;;31.17;21.10;;;;;;;9.08;55.66;102222.41;677263;29;1170;-76
2022/03/26 00:04:34;;;;;;;31.07;21.80;;;;;;;9.17;55.66;102225.28;673845;29;4341;-76
2022/03/26 00:04:55;;;;;;;29.83;20.73;;;;;;;9.17;55.50;102224.41;677627;29;1211;-77
2022/03/26 00:05:18;;;;;;;29.85;20.38;;;;;;;9.24;55.24;102228.06;680639;28;1366;-76
2022/03/26 00:05:39;;;;;;;30.63;21.17;;;;;;;9.26;55.00;102231.59;682832;28;1976;-77
2022/03/26 00:06:00;;;;;;;30.85;20.90;;;;;;;9.38;54.81;102224.06;684249;28;1708;-76
2022/03/26 00:06:20;;;;;;;30.77;20.60;;;;;;;9.40;54.57;102218.88;682828;28;1236;-77
2022/03/26 00:06:41;;;;;;;33.85;21.15;;;;;;;9.33;56.60;102228.28;680820;28;1678;-77
2022/03/26 00:07:01;;;;;;;31.33;20.63;;;;;;;9.18;56.03;102220.97;678979;29;1460;-77
2022/03/26 00:07:22;;;;;;;30.73;20.58;;;;;;;9.23;55.08;102215.84;679673;28;4319;-77
2022/03/26 00:07:42;;;;;;;30.33;21.00;;;;;;;9.22;54.89;102216.69;678933;29;1325;-78
2022/03/26 00:08:03;;;;;;;30.55;20.90;;;;;;;9.25;55.20;102209.84;682235;28;1365;-77
2022/03/26 00:08:24;;;;;;;30.65;20.50;;;;;;;9.29;55.22;102216.91;682347;28;923;-76
2022/03/26 00:08:44;;;;;;;30.47;20.60;;;;;;;9.29;55.55;102216.00;683176;28;1175;-77
2022/03/26 00:09:05;;;;;;;31.65;21.20;;;;;;;9.31;54.96;102216.94;683210;28;1730;-78
2022/03/26 00:09:26;;;;;;;31.35;20.83;;;;;;;9.33;54.78;102223.06;685047;28;1201;-77
2022/03/26 00:09:46;;;;;;;30.63;20.57;;;;;;;9.34;54.76;102224.84;685630;28;1746;-77
2022/03/26 00:10:07;;;;;;;33.58;20.98;;;;;;;9.36;54.70;102218.81;682286;28;1248;-76
2022/03/26 00:10:27;;;;;;;30.83;20.58;;;;;;;9.41;54.50;102210.22;685672;28;4304;-76
2022/03/26 00:10:48;;;;;;;30.57;20.37;;;;;;;9.41;54.74;102207.59;686934;28;1619;-77
2022/03/26 00:11:08;;;;;;;34.10;21.38;;;;;;;9.38;54.53;102209.28;685793;28;1132;-76
2022/03/26 00:11:29;;;;;;;31.60;20.83;;;;;;;9.34;55.04;102209.19;688672;28;1477;-76
2022/03/26 00:11:49;;;;;;;31.10;21.48;;;;;;;9.33;54.69;102212.63;685202;28;1780;-76
2022/03/26 00:12:10;;;;;;;33.40;21.48;;;;;;;9.24;57.01;102215.03;688884;28;1702;-76
2022/03/26 00:12:31;;;;;;;31.30;20.30;;;;;;;9.15;55.31;102221.75;684333;28;1791;-76
2022/03/26 00:12:52;;;;;;;30.20;20.52;;;;;;;9.13;55.49;102227.78;687543;28;1259;-76
2022/03/26 00:13:13;;;;;;;32.03;21.02;;;;;;;9.16;55.44;102213.06;685875;28;1428;-76
2022/03/26 00:13:33;;;;;;;32.77;21.17;;;;;;;9.03;56.80;102216.22;683647;28;4345;-77
2022/03/26 00:13:54;;;;;;;31.88;20.60;;;;;;;8.95;56.12;102209.91;687472;28;891;-76
2022/03/26 00:14:14;;;;;;;31.13;20.67;;;;;;;8.91;56.80;102218.50;687027;28;1316;-76
2022/03/26 00:14:34;;;;;;;32.17;21.02;;;;;;;8.91;56.18;102213.28;687541;28;1244;-76
2022/03/26 00:14:55;;;;;;;31.80;21.17;;;;;;;8.79;58.31;102217.34;684422;28;1251;-76
2022/03/26 00:15:15;;;;;;;32.77;21.73;;;;;;;8.72;57.64;102214.50;682752;28;1457;-77
2022/03/26 00:15:36;;;;;;;31.50;21.13;;;;;;;8.74;57.10;102212.84;684125;28;2202;-77
2022/03/26 00:15:56;;;;;;;30.93;20.97;;;;;;;8.83;56.76;102216.56;685613;28;1638;-77
2022/03/26 00:16:16;;;;;;;33.53;22.25;;;;;;;8.71;58.11;102211.00;681991;28;4348;-77
2022/03/26 00:16:37;;;;;;;33.13;21.47;;;;;;;8.64;57.15;102219.47;682851;28;1433;-76
2022/03/26 00:16:57;;;;;;;30.77;21.08;;;;;;;8.67;57.09;102212.66;681763;28;1205;-77
2022/03/26 00:17:18;;;;;;;32.30;21.20;;;;;;;8.76;56.17;102212.00;686198;28;971;-76
2022/03/26 00:17:39;;;;;;;31.13;20.98;;;;;;;8.84;57.11;102212.22;686998;28;1674;-76
2022/03/26 00:18:00;;;;;;;29.80;20.92;;;;;;;8.67;59.59;102207.44;683396;28;1292;-76
2022/03/26 00:18:20;;;;;;;31.13;21.25;;;;;;;8.62;58.11;102214.22;682911;28;934;-76
2022/03/26 00:18:41;;;;;;;29.60;20.45;;;;;;;8.65;58.21;102211.72;680741;28;1518;-76
2022/03/26 00:19:02;;;;;;;31.73;21.33;;;;;;;8.54;59.85;102228.75;685806;28;1746;-76
2022/03/26 00:19:22;;;;;;;33.80;22.50;;;;;;;8.44;58.94;102211.06;681885;28;4370;-76
2022/03/26 00:19:43;;;;;;;31.98;21.20;;;;;;;8.48;57.95;102212.97;680573;28;1690;-76
2022/03/26 00:20:04;;;;;;;32.00;21.00;;;;;;;8.53;57.66;102211.38;682634;28;1252;-76
2022/03/26 00:20:25;;;;;;;32.25;20.98;;;;;;;8.58;57.37;102214.97;682353;28;1416;-76
2022/03/26 00:20:45;;;;;;;31.85;21.25;;;;;;;8.59;57.20;102213.28;680436;28;1918;-77
2022/03/26 00:21:06;;;;;;;30.90;21.03;;;;;;;8.59;59.24;102216.75;682549;28;1196;-77
2022/03/26 00:21:27;;;;;;;30.98;21.35;;;;;;;8.46;59.23;102210.31;681543;28;1196;-76
2022/03/26 00:21:50;;;;;;;29.88;20.90;;;;;;;8.50;58.62;102216.47;682328;28;1663;-76
2022/03/26 00:22:11;;;;;;;30.58;20.70;;;;;;;8.61;57.28;102212.50;680987;28;932;-76
2022/03/26 00:22:31;;;;;;;30.60;20.67;;;;;;;8.71;56.55;102215.31;681338;28;4297;-77
2022/03/26 00:22:51;;;;;;;27.33;20.47;;;;;;;8.78;57.14;102217.28;684482;28;1171;-76
2022/03/26 00:23:12;;;;;;;29.87;20.40;;;;;;;8.85;57.09;102214.88;685655;28;946;-76
2022/03/26 00:23:33;;;;;;;30.08;20.82;;;;;;;8.83;56.46;102224.41;680795;28;3653;-77
2022/03/26 00:23:53;;;;;;;30.37;20.53;;;;;;;8.88;56.18;102214.06;684963;28;1364;-76
2022/03/26 00:24:14;;;;;;;32.38;21.10;;;;;;;8.97;56.08;102216.03;685280;28;1566;-77
2022/03/26 00:24:35;;;;;;;33.47;21.30;;;;;;;8.98;56.79;102218.69;684280;28;1485;-77
2022/03/26 00:24:55;;;;;;;35.23;21.53;;;;;;;8.98;56.88;102215.22;685773;28;1215;-76
2022/03/26 00:25:17;;;;;;;34.17;21.52;;;;;;;8.91;56.52;102216.75;684949;28;4305;-76
2022/03/26 00:25:37;;;;;;;31.08;20.20;;;;;;;8.97;56.16;102214.34;682279;28;1416;-77
2022/03/26 00:25:59;;;;;;;30.00;20.13;;;;;;;8.81;57.90;102222.59;682123;28;1378;-76
2022/03/26 00:26:20;;;;;;;31.73;20.98;;;;;;;8.56;59.53;102214.06;679431;28;1335;-76
2022/03/26 00:26:41;;;;;;;34.08;21.55;;;;;;;8.42;60.04;102217.94;680164;28;1319;-76
2022/03/26 00:27:02;;;;;;;33.63;20.87;;;;;;;8.39;58.54;102212.66;680840;28;1282;-77
2022/03/26 00:27:24;;;;;;;31.88;20.17;;;;;;;8.48;57.79;102212.97;681645;28;1270;-77
2022/03/26 00:27:44;;;;;;;33.42;21.38;;;;;;;8.58;58.22;102214.13;682652;28;1439;-77
2022/03/26 00:28:05;;;;;;;32.87;21.57;;;;;;;8.56;58.66;102215.81;684681;28;1328;-76
2022/03/26 00:28:28;;;;;;;31.73;20.73;;;;;;;8.65;57.30;102218.66;681577;28;4503;-76
2022/03/26 00:28:48;;;;;;;32.00;20.47;;;;;;;8.71;57.33;102216.22;684825;28;1374;-77
2022/03/26 00:29:09;;;;;;;31.40;20.77;;;;;;;8.69;58.16;102217.91;685902;28;1684;-76
2022/03/26 00:29:31;;;;;;;32.92;21.05;;;;;;;8.54;58.15;102214.88;685627;28;1449;-77
2022/03/26 00:29:51;;;;;;;32.23;21.47;;;;;;;8.37;58.43;102220.44;685567;28;1363;-76
2022/03/26 00:30:12;;;;;;;34.05;21.02;;;;;;;8.45;58.79;102212.88;687202;28;1729;-76
2022/03/26 00:30:34;;;;;;;32.03;20.27;;;;;;;8.52;58.23;102217.44;686570;28;1150;-76
2022/03/26 00:30:54;;;;;;;32.95;20.63;;;;;;;8.54;58.90;102225.28;683586;28;975;-76
2022/03/26 00:31:15;;;;;;;32.30;20.90;;;;;;;8.49;58.16;102225.16;681414;28;1315;-77
2022/03/26 00:31:38;;;;;;;32.60;20.77;;;;;;;8.54;57.63;102223.56;682496;28;4736;-76
2022/03/26 00:32:04;;;;;;;31.23;20.23;;;;;;;8.59;57.42;102221.09;683340;28;1439;-76
2022/03/26 00:32:24;;;;;;;32.00;20.77;;;;;;;8.69;56.40;102217.91;687154;28;1237;-76
2022/03/26 00:32:45;;;;;;;32.60;20.90;;;;;;;8.73;56.56;102219.75;682383;28;1463;-77
2022/03/26 00:33:08;;;;;;;31.52;20.60;;;;;;;8.65;57.06;102216.03;682068;28;1341;-76
2022/03/26 00:33:30;;;;;;;32.77;21.43;;;;;;;8.71;56.38;102216.22;680239;28;1139;-76
2022/03/26 00:33:52;;;;;;;34.63;22.30;;;;;;;8.82;56.54;102217.41;678858;29;1507;-76
2022/03/26 00:34:12;;;;;;;31.83;20.58;;;;;;;8.84;56.17;102222.66;678521;29;1137;-76
2022/03/26 00:34:33;;;;;;;32.20;21.23;;;;;;;8.78;56.89;102223.38;682278;28;4473;-76
2022/03/26 00:34:54;;;;;;;31.20;21.42;;;;;;;8.66;58.05;102220.44;684168;28;1106;-77
2022/03/26 00:35:14;;;;;;;30.50;20.80;;;;;;;8.50;59.03;102226.91;687577;28;1864;-76
2022/03/26 00:35:36;;;;;;;31.30;20.80;;;;;;;8.48;58.51;102215.56;687754;28;1438;-77
2022/03/26 00:35:57;;;;;;;33.67;20.55;;;;;;;8.54;58.34;102222.69;687797;28;1648;-77
2022/03/26 00:36:20;;;;;;;31.85;20.55;;;;;;;8.56;58.61;102236.66;685783;28;1642;-77
2022/03/26 00:36:40;;;;;;;31.25;21.17;;;;;;;8.43;59.72;102222.34;681915;28;1396;-76
2022/03/26 00:37:01;;;;;;;30.90;20.37;;;;;;;8.28;59.88;102234.09;682819;28;1626;-76
2022/03/26 00:37:22;;;;;;;31.60;21.50;;;;;;;8.16;60.91;102234.59;682742;28;4422;-77
2022/03/26 00:37:42;;;;;;;32.53;21.70;;;;;;;8.00;61.73;102221.94;683089;28;1418;-76
2022/03/26 00:38:03;;;;;;;32.20;21.35;;;;;;;7.94;61.50;102219.16;683134;28;1462;-78
2022/03/26 00:38:23;;;;;;;30.98;20.70;;;;;;;7.90;62.48;102228.56;685456;28;1335;-77
2022/03/26 00:38:44;;;;;;;34.47;21.53;;;;;;;7.88;61.14;102224.16;682625;28;1065;-76
2022/03/26 00:39:04;;;;;;;35.35;21.20;;;;;;;7.87;61.71;102215.47;682452;28;1504;-76
2022/03/26 00:39:25;;;;;;;33.90;21.80;;;;;;;7.84;62.51;102228.41;680248;28;879;-77
2022/03/26 00:39:46;;;;;;;34.30;21.70;;;;;;;7.77;63.44;102227.31;686305;28;1302;-77
2022/03/26 00:40:07;;;;;;;31.90;21.48;;;;;;;7.66;62.62;102218.28;685902;28;893;-77
2022/03/26 00:40:28;;;;;;;31.08;20.77;;;;;;;7.77;62.30;102240.31;684596;28;4573;-76
2022/03/26 00:40:48;;;;;;;31.67;20.55;;;;;;;7.74;63.88;102215.91;684748;28;1930;-76
2022/03/26 00:41:09;;;;;;;34.00;21.60;;;;;;;7.70;62.94;102214.94;682903;28;1448;-78
2022/03/26 00:41:29;;;;;;;31.50;21.00;;;;;;;7.70;62.11;102216.63;683930;28;999;-77
2022/03/26 00:41:50;;;;;;;31.48;20.95;;;;;;;7.76;62.99;102220.31;686908;28;1505;-76
2022/03/26 00:42:10;;;;;;;30.60;20.37;;;;;;;7.91;61.80;102219.06;686569;28;1330;-77
2022/03/26 00:42:31;;;;;;;31.48;20.15;;;;;;;8.07;60.42;102221.31;682791;28;4846;-76
2022/03/26 00:42:51;;;;;;;31.87;21.10;;;;;;;8.24;59.95;102218.28;684872;28;1526;-76
2022/03/26 00:43:12;;;;;;;31.35;20.85;;;;;;;8.32;58.46;102222.00;685434;28;1426;-77
2022/03/26 00:43:32;;;;;;;31.80;20.90;;;;;;;8.39;58.35;102223.09;684270;28;5370;-77
2022/03/26 00:43:53;;;;;;;31.53;20.70;;;;;;;8.43;58.66;102223.25;679611;29;1757;-76
2022/03/26 00:44:13;;;;;;;30.97;20.37;;;;;;;8.44;57.80;102222.38;681161;28;1077;-76
2022/03/26 00:44:35;;;;;;;30.58;20.38;;;;;;;8.44;57.63;102217.16;683482;28;1204;-77
2022/03/26 00:44:55;;;;;;;29.65;20.67;;;;;;;8.52;57.70;102220.91;683262;28;1455;-77
2022/03/26 00:45:16;;;;;;;30.67;21.23;;;;;;;8.58;57.38;102225.41;683352;28;1378;-76
2022/03/26 00:45:37;;;;;;;34.00;20.70;;;;;;;8.63;57.06;102228.16;686311;28;1723;-76
2022/03/26 00:45:57;;;;;;;34.05;21.08;;;;;;;8.67;57.54;102215.25;688948;28;1505;-77
2022/03/26 00:46:17;;;;;;;31.37;20.87;;;;;;;8.67;57.91;102219.59;682146;28;4356;-76
2022/03/26 00:46:38;;;;;;;31.75;21.23;;;;;;;8.55;58.42;102219.25;686460;28;1734;-76
2022/03/26 00:46:58;;;;;;;31.43;21.27;;;;;;;8.51;58.15;102223.47;685046;28;1164;-77
2022/03/26 00:47:18;;;;;;;31.13;20.07;;;;;;;8.58;56.84;102219.31;686067;28;1533;-76
2022/03/26 00:47:39;;;;;;;30.33;20.15;;;;;;;8.61;57.01;102224.63;686798;28;1318;-76
2022/03/26 00:47:59;;;;;;;30.80;20.40;;;;;;;8.48;59.01;102224.25;685929;28;1568;-77
2022/03/26 00:48:20;;;;;;;33.35;21.13;;;;;;;8.31;59.35;102225.47;688258;28;1533;-76
2022/03/26 00:48:40;;;;;;;33.42;21.65;;;;;;;8.33;58.68;102218.56;685195;28;1761;-77
2022/03/26 00:49:01;;;;;;;34.07;21.70;;;;;;;8.37;57.74;102230.00;684667;28;1390;-77
2022/03/26 00:49:21;;;;;;;33.08;21.15;;;;;;;8.32;57.95;102217.72;682648;28;4326;-77
2022/03/26 00:49:42;;;;;;;31.20;20.87;;;;;;;8.29;58.20;102224.53;680319;28;1646;-76
2022/03/26 00:50:03;;;;;;;32.28;21.40;;;;;;;8.30;57.98;102223.72;682369;28;1469;-76
2022/03/26 00:50:24;;;;;;;30.27;21.10;;;;;;;8.45;57.94;102220.69;685599;28;1333;-76
2022/03/26 00:50:44;;;;;;;30.10;20.85;;;;;;;8.47;57.63;102225.13;686263;28;1360;-78
2022/03/26 00:51:04;;;;;;;31.70;21.33;;;;;;;8.46;57.42;102219.84;686643;28;987;-77
2022/03/26 00:51:25;;;;;;;32.83;21.33;;;;;;;8.48;57.90;102213.84;686690;28;1588;-77
2022/03/26 00:51:46;;;;;;;31.45;21.08;;;;;;;8.59;57.47;102221.09;683855;28;1680;-77
2022/03/26 00:52:07;;;;;;;31.40;20.77;;;;;;;8.68;57.04;102221.34;686715;28;1376;-77
2022/03/26 00:52:27;;;;;;;32.13;20.67;;;;;;;8.74;56.76;102220.66;684459;28;4583;-76
2022/03/26 00:52:48;;;;;;;32.58;21.50;;;;;;;8.73;56.13;102227.56;680869;28;1645;-76
2022/03/26 00:53:08;;;;;;;34.27;21.60;;;;;;;8.80;56.71;102221.69;681778;28;1124;-76
2022/03/26 00:53:29;;;;;;;31.88;21.17;;;;;;;8.88;55.88;102219.28;685047;28;1394;-77
2022/03/26 00:53:49;;;;;;;34.13;21.77;;;;;;;8.71;58.99;102226.66;680330;28;1347;-76
2022/03/26 00:54:10;;;;;;;33.08;21.23;;;;;;;8.46;59.99;102235.47;677766;29;1232;-76
2022/03/26 00:54:32;;;;;;;33.70;21.48;;;;;;;8.27;60.67;102224.50;679740;29;1286;-78
2022/03/26 00:54:52;;;;;;;34.80;22.17;;;;;;;8.12;60.74;102224.91;679470;28;1372;-77
2022/03/26 00:55:13;;;;;;;32.60;21.47;;;;;;;7.93;61.82;102226.06;678842;28;1314;-76
2022/03/26 00:55:34;;;;;;;31.25;20.48;;;;;;;7.81;61.94;102223.09;678219;28;4314;-77
2022/03/26 00:55:54;;;;;;;34.58;21.92;;;;;;;7.69;62.51;102235.72;685837;28;1731;-76
2022/03/26 00:56:15;;;;;;;34.35;22.15;;;;;;;7.53;64.32;102222.19;682587;28;1369;-77
2022/03/26 00:56:37;;;;;;;33.63;21.63;;;;;;;7.44;63.83;102221.91;682953;28;1542;-76
2022/03/26 00:56:58;;;;;;;33.58;22.23;;;;;;;7.32;64.80;102222.38;682259;28;974;-76
2022/03/26 00:57:18;;;;;;;32.72;21.38;;;;;;;7.25;65.08;102216.06;683139;28;1318;-77
2022/03/26 00:57:39;;;;;;;36.80;22.30;;;;;;;7.19;65.51;102225.41;683682;28;1495;-77
2022/03/26 00:57:59;;;;;;;34.42;22.10;;;;;;;7.15;65.19;102225.28;685226;28;1693;-76
2022/03/26 00:58:20;;;;;;;30.08;21.17;;;;;;;7.18;65.24;102223.63;687865;28;4299;-76
2022/03/26 00:58:41;;;;;;;32.33;21.50;;;;;;;7.16;64.27;102221.84;687259;28;1210;-76
2022/03/26 00:59:02;;;;;;;34.93;22.23;;;;;;;7.22;64.32;102222.91;688955;28;1218;-77
2022/03/26 00:59:23;;;;;;;34.53;22.02;;;;;;;7.39;62.68;102223.47;684546;28;1195;-77
2022/03/26 00:59:44;;;;;;;33.83;20.92;;;;;;;7.57;61.60;102211.03;687738;28;1477;-76
2022/03/26 01:00:07;;;;;;;33.70;21.13;;;;;;;7.71;61.04;102216.69;687961;28;1335;-76
2022/03/26 01:00:27;;;;;;;32.83;21.80;;;;;;;7.62;64.54;102217.28;687231;28;1116;-76
2022/03/26 01:00:48;;;;;;;32.58;21.90;;;;;;;7.49;65.17;102217.72;685231;28;1914;-76
2022/03/26 01:01:09;;;;;;;34.08;22.25;;;;;;;7.37;65.36;102219.94;682676;28;1195;-76
2022/03/26 01:01:29;;;;;;;33.67;22.27;;;;;;;7.25;65.77;102217.78;686416;28;4353;-77
2022/03/26 01:01:50;;;;;;;32.13;21.43;;;;;;;7.14;66.79;102222.63;689278;28;1271;-77
2022/03/26 01:02:11;;;;;;;33.83;21.85;;;;;;;7.04;66.71;102224.03;688073;28;1070;-77
2022/03/26 01:02:31;;;;;;;34.25;22.27;;;;;;;6.97;65.98;102214.25;687779;28;1031;-76
2022/03/26 01:02:52;;;;;;;36.55;22.60;;;;;;;6.90;66.89;102220.06;688142;28;813;-76
2022/03/26 01:03:16;;;;;;;34.13;22.00;;;;;;;6.80;68.24;102219.72;687462;28;1314;-76
2022/03/26 01:03:37;;;;;;;35.00;22.75;;;;;;;6.76;67.50;102215.25;685176;28;1713;-76
2022/03/26 01:03:58;;;;;;;33.40;22.00;;;;;;;6.81;67.44;102215.41;682413;28;1183;-76
2022/03/26 01:04:19;;;;;;;31.75;21.20;;;;;;;6.94;66.37;102211.53;682568;28;4614;-76
2022/03/26 01:04:40;;;;;;;30.67;20.42;;;;;;;7.08;64.44;102218.09;685893;28;1349;-76
2022/03/26 01:05:00;;;;;;;32.33;21.13;;;;;;;7.16;65.19;102221.84;688403;28;1675;-76
2022/03/26 01:05:21;;;;;;;32.53;22.03;;;;;;;7.06;68.04;102211.06;685103;28;1401;-78
2022/03/26 01:05:43;;;;;;;33.72;22.10;;;;;;;6.94;68.49;102215.00;683018;28;1424;-78
2022/03/26 01:06:04;;;;;;;33.63;22.15;;;;;;;6.84;68.87;102212.03;681844;28;1354;-76
2022/03/26 01:06:25;;;;;;;33.03;22.33;;;;;;;6.76;68.33;102211.78;687963;28;1294;-77
2022/03/26 01:06:48;;;;;;;33.80;22.25;;;;;;;6.66;68.83;102220.97;685840;28;1407;-77
2022/03/26 01:07:08;;;;;;;32.65;22.15;;;;;;;6.59;69.11;102208.56;681963;28;1505;-76
2022/03/26 01:07:29;;;;;;;32.90;22.20;;;;;;;6.52;69.43;102217.88;682689;28;4552;-76
2022/03/26 01:07:50;;;;;;;31.95;22.20;;;;;;;6.49;69.66;102225.53;684693;28;1584;-76
2022/03/26 01:08:11;;;;;;;32.95;22.52;;;;;;;6.45;70.07;102218.44;686075;28;1208;-76
2022/03/26 01:08:31;;;;;;;34.50;22.63;;;;;;;6.43;70.00;102220.97;681947;28;1777;-77
2022/03/26 01:08:53;;;;;;;32.95;21.30;;;;;;;6.57;68.48;102218.88;683627;28;1472;-76
2022/03/26 01:09:14;;;;;;;30.35;20.77;;;;;;;6.77;66.79;102210.94;688405;28;1309;-76
2022/03/26 01:09:34;;;;;;;32.53;21.17;;;;;;;6.91;65.75;102220.13;686892;28;1402;-77
2022/03/26 01:09:55;;;;;;;34.50;21.35;;;;;;;6.90;66.75;102218.34;688458;28;1527;-76
2022/03/26 01:10:15;;;;;;;33.80;22.13;;;;;;;6.82;68.51;102225.84;688834;28;1771;-77
2022/03/26 01:10:36;;;;;;;32.50;22.10;;;;;;;6.73;69.44;102219.44;690921;28;4265;-76
2022/03/26 01:10:58;;;;;;;36.60;23.30;;;;;;;6.68;69.29;102218.41;691411;28;1772;-76
2022/03/26 01:11:18;;;;;;;34.05;23.33;;;;;;;6.63;68.90;102218.22;688167;28;1322;-76
2022/03/26 01:11:39;;;;;;;33.03;22.27;;;;;;;6.58;68.71;102222.41;684707;28;1236;-76
2022/03/26 01:11:59;;;;;;;33.60;21.08;;;;;;;6.58;68.63;102220.66;682707;28;1613;-77
2022/03/26 01:12:20;;;;;;;32.00;21.03;;;;;;;6.69;67.93;102222.75;681986;28;1580;-76
2022/03/26 01:12:41;;;;;;;33.78;21.63;;;;;;;6.80;66.93;102214.53;685361;28;1571;-76
2022/03/26 01:13:02;;;;;;;34.73;21.80;;;;;;;6.79;67.84;102222.28;680098;29;1422;-76
2022/03/26 01:13:25;;;;;;;35.95;22.30;;;;;;;6.63;69.61;102226.03;682367;28;4328;-76
2022/03/26 01:13:46;;;;;;;32.13;21.55;;;;;;;6.53;69.71;102218.72;682737;28;1391;-76
2022/03/26 01:14:06;;;;;;;33.50;22.60;;;;;;;6.43;69.86;102228.78;683113;28;1372;-76
2022/03/26 01:14:27;;;;;;;33.53;21.97;;;;;;;6.32;70.23;102217.09;687120;28;1416;-77
2022/03/26 01:14:49;;;;;;;32.93;21.73;;;;;;;6.25;71.19;102217.72;689960;28;1453;-76
2022/03/26 01:15:10;;;;;;;34.70;22.40;;;;;;;6.21;70.99;102221.00;690858;28;1052;-76
2022/03/26 01:15:30;;;;;;;34.33;22.07;;;;;;;6.14;70.98;102219.88;687327;28;1437;-76
2022/03/26 01:15:51;;;;;;;34.88;22.05;;;;;;;6.10;71.36;102225.78;688220;28;1859;-77
2022/03/26 01:16:12;;;;;;;35.42;21.80;;;;;;;6.02;72.72;102216.81;687211;28;1351;-76
2022/03/26 01:16:33;;;;;;;33.55;22.05;;;;;;;5.93;73.15;102218.19;682471;28;4290;-76
2022/03/26 01:16:53;;;;;;;34.22;22.58;;;;;;;5.87;73.25;102223.16;685096;28;1400;-76
2022/03/26 01:17:14;;;;;;;37.33;23.03;;;;;;;5.83;73.54;102228.13;685472;28;1754;-76
2022/03/26 01:17:34;;;;;;;33.58;22.70;;;;;;;5.79;73.88;102217.66;684355;28;1220;-76
2022/03/26 01:17:55;;;;;;;34.92;22.42;;;;;;;5.86;71.90;102231.75;688497;28;1282;-76
2022/03/26 01:18:16;;;;;;;34.83;21.07;;;;;;;6.02;71.09;102227.19;684654;28;1204;-77
2022/03/26 01:18:36;;;;;;;33.03;21.30;;;;;;;6.26;69.80;102224.69;679658;28;1585;-76
2022/03/26 01:18:56;;;;;;;32.23;21.03;;;;;;;6.41;69.34;102222.66;680277;28;979;-76
2022/03/26 01:19:17;;;;;;;33.35;21.67;;;;;;;6.35;69.62;102222.41;676765;28;4413;-76
2022/03/26 01:19:38;;;;;;;33.92;21.58;;;;;;;6.32;70.03;102221.44;680226;28;1391;-76
2022/03/26 01:20:01;;;;;;;34.37;22.37;;;;;;;6.22;71.54;102225.38;683291;28;3779;-76
2022/03/26 01:20:21;;;;;;;34.00;22.30;;;;;;;6.15;72.65;102219.06;683572;28;1336;-76
2022/03/26 01:20:42;;;;;;;33.83;22.05;;;;;;;6.11;72.46;102218.06;685054;28;1064;-76
2022/03/26 01:21:03;;;;;;;32.87;22.03;;;;;;;6.03;73.19;102219.47;682242;28;1919;-76
2022/03/26 01:21:23;;;;;;;32.88;21.55;;;;;;;6.06;71.13;102216.09;683818;28;1177;-76
2022/03/26 01:21:44;;;;;;;31.60;20.50;;;;;;;6.25;70.21;102220.31;685028;28;1447;-76
2022/03/26 01:22:05;;;;;;;32.97;21.55;;;;;;;6.42;69.15;102215.72;680525;28;963;-76
2022/03/26 01:22:26;;;;;;;32.88;21.98;;;;;;;6.50;68.91;102223.81;684649;28;4632;-76
2022/03/26 01:22:46;;;;;;;32.03;21.75;;;;;;;6.47;69.59;102222.88;682734;28;1004;-76
2022/03/26 01:23:07;;;;;;;32.53;21.25;;;;;;;6.41;69.01;102214.84;682154;28;1037;-77
2022/03/26 01:23:27;;;;;;;31.07;21.27;;;;;;;6.47;67.85;102222.88;688075;28;1395;-76
2022/03/26 01:23:49;;;;;;;31.65;20.80;;;;;;;6.65;67.21;102214.00;685905;28;1378;-76
2022/03/26 01:24:10;;;;;;;31.63;20.00;;;;;;;6.76;66.76;102216.97;684513;28;1494;-77
2022/03/26 01:24:30;;;;;;;30.10;21.07;;;;;;;6.76;69.54;102215.25;682826;28;1208;-76
2022/03/26 01:24:51;;;;;;;33.70;22.15;;;;;;;6.64;70.08;102220.88;682113;28;1227;-76
2022/03/26 01:25:11;;;;;;;34.63;22.80;;;;;;;6.52;71.11;102216.97;685080;28;1250;-76
2022/03/26 01:25:32;;;;;;;33.10;21.58;;;;;;;6.42;71.10;102223.53;683481;28;4286;-77
2022/03/26 01:25:52;;;;;;;35.05;22.20;;;;;;;6.33;71.13;102216.28;687774;28;1151;-77
2022/03/26 01:26:14;;;;;;;35.97;22.20;;;;;;;6.31;69.64;102212.72;688148;28;1395;-76
2022/03/26 01:26:35;;;;;;;31.95;21.55;;;;;;;6.47;68.80;102222.00;685559;28;1270;-76
2022/03/26 01:26:55;;;;;;;31.52;20.45;;;;;;;6.58;68.18;102219.78;685604;28;1269;-76
2022/03/26 01:27:15;;;;;;;31.43;20.87;;;;;;;6.58;68.76;102225.00;688001;28;1521;-76
2022/03/26 01:27:36;;;;;;;30.87;20.70;;;;;;;6.48;70.17;102224.66;684101;28;1713;-76
2022/03/26 01:27:57;;;;;;;34.80;21.73;;;;;;;6.30;71.19;102217.03;681922;28;1331;-77
2022/03/26 01:28:17;;;;;;;33.08;22.15;;;;;;;6.20;72.46;102214.03;681559;28;4529;-76
2022/03/26 01:28:38;;;;;;;32.93;21.40;;;;;;;6.11;72.70;102218.06;684603;28;1303;-77
2022/03/26 01:28:58;;;;;;;34.55;22.13;;;;;;;6.07;72.84;102217.88;683979;28;1374;-76
2022/03/26 01:29:19;;;;;;;33.47;21.63;;;;;;;6.01;72.18;102215.94;683281;28;1211;-76
2022/03/26 01:29:40;;;;;;;32.20;21.00;;;;;;;6.01;72.05;102210.75;684824;28;1355;-76
2022/03/26 01:30:03;;;;;;;35.85;21.83;;;;;;;5.98;72.66;102210.59;682069;28;1310;-76
2022/03/26 01:30:24;;;;;;;34.80;21.45;;;;;;;5.96;71.85;102215.72;679155;28;1369;-76
2022/03/26 01:30:46;;;;;;;30.87;21.23;;;;;;;6.01;71.18;102213.34;680658;28;1234;-76
2022/03/26 01:31:06;;;;;;;30.83;20.98;;;;;;;6.21;70.08;102210.63;681092;28;1296;-76
2022/03/26 01:31:26;;;;;;;30.73;21.20;;;;;;;6.27;70.70;102218.63;682273;28;4847;-76
2022/03/26 01:31:47;;;;;;;32.47;21.07;;;;;;;6.17;72.70;102213.94;680602;28;1216;-77
2022/03/26 01:32:08;;;;;;;33.33;21.50;;;;;;;6.05;72.96;102212.63;679364;28;1162;-76
2022/03/26 01:32:29;;;;;;;36.65;21.83;;;;;;;6.01;72.30;102209.84;678214;29;1244;-77
2022/03/26 01:32:49;;;;;;;34.67;21.60;;;;;;;5.96;72.44;102217.44;680939;28;1345;-76
2022/03/26 01:33:09;;;;;;;34.47;20.87;;;;;;;5.95;72.22;102216.56;684944;28;1307;-76
2022/03/26 01:33:30;;;;;;;32.90;22.05;;;;;;;5.97;71.49;102219.22;685503;28;1140;-77
2022/03/26 01:33:51;;;;;;;32.93;21.77;;;;;;;6.05;72.19;102214.31;686556;28;1158;-76
2022/03/26 01:34:11;;;;;;;32.63;21.42;;;;;;;6.01;74.20;102215.94;688608;28;1060;-76
2022/03/26 01:34:31;;;;;;;33.07;21.37;;;;;;;5.89;73.86;102216.28;685386;28;4519;-76
2022/03/26 01:34:52;;;;;;;32.45;21.25;;;;;;;5.80;73.83;102214.22;688240;28;1077;-75
2022/03/26 01:35:14;;;;;;;34.57;22.00;;;;;;;5.75;74.40;102215.75;686183;28;1148;-76
2022/03/26 01:35:35;;;;;;;34.33;21.65;;;;;;;5.66;74.61;102217.09;684066;28;1288;-76
2022/03/26 01:35:55;;;;;;;34.67;22.00;;;;;;;5.61;74.58;102220.38;686392;28;1212;-76
2022/03/26 01:36:16;;;;;;;36.17;21.27;;;;;;;5.65;73.45;102212.72;685301;28;1065;-76
2022/03/26 01:36:36;;;;;;;32.78;19.88;;;;;;;5.85;72.51;102209.22;687353;28;1222;-76
2022/03/26 01:36:57;;;;;;;31.80;20.93;;;;;;;5.91;72.42;102208.56;686061;28;1333;-76
2022/03/26 01:37:17;;;;;;;33.47;21.85;;;;;;;5.89;73.53;102210.22;684962;28;4319;-76
2022/03/26 01:37:38;;;;;;;35.20;22.27;;;;;;;5.87;73.44;102214.47;687140;28;887;-76
2022/03/26 01:38:01;;;;;;;33.63;22.05;;;;;;;5.84;73.90;102211.75;686127;28;1022;-76
2022/03/26 01:38:21;;;;;;;31.42;20.98;;;;;;;5.85;73.36;102213.53;687345;28;888;-76